Vance Air Force Base
KEND : now visible

Airfield :











YOU CAN JOIN US ON...

 
LOGIN :

Register | Disclaimer

   EN    FR    IT 

 









Legend :    VFR   Marginal VFR   IFR   Intensive IFR   Very Intensive IFR
Visi :
Ceiling :
>= 8 km
>= 3000ft
5 to 8 km
1000 to 3000 ft
1500m to 5 km
500 to 1000 ft
800 to 1500m
200 to 500 ft
< 800m
< 200 ft
Symbols :   Thunderstorms  Fog  Heavy snow  Heavy precipitations  Wind > 20 kt






- Airport Elevation : 1307 ft


KEND - Vance Air Force Base

CURRENT METAR :
  • 071956Z AUTO 19012G17KT 10SM CLR 29/16 A2977 RMK AO2 SLP072 T02910159

EXPIRED METARs :
  • 071856Z AUTO 19011KT 10SM FEW160 27/16 A2978 RMK AO2 SLP076 T02710164
  • 071756Z AUTO 20009KT 10SM CLR 25/17 A2980 RMK AO2 SLP084 60000 T02540165 10254 20160 58008

TAF TAF KEND
Valid from the 07 at 18:00 until the 09 at 00:00 UTC


071800Z 0718/0824 20010KT 9999 SCT210 QNH2973INS
BECMG 0723/0724 21010KT 9999 SCT250 QNH2977INS
BECMG 0803/0804 06010KT 9999 FEW200 QNH2972INS
BECMG 0815/0816 02006KT 9999 FEW200 QNH2976INS TX28/0722Z TN12/0811Z



MET'MAP, your aeronautical weather chart ! - Copyright ORBIFLY December 2007 - Disclaimer

ORBIFLY MET'MAP TEAM :

Programming & Development : Alexandra Zaïnal
Concept & original design : Baudouin d'Aumeries
Assistance for programming : Marc-Olivier Méhu
Technical & hardware support : Manuel Goepfert

Contact : metmap@orbifly.com




SOURCES & CREDITS :

   NOAA       Earth
Advisory